createdAt,value
2023-04-23T00:01:42.240Z,15.13
2023-04-23T00:04:07.200Z,13.37
2023-04-23T00:06:31.071Z,13.00
2023-04-23T00:08:58.312Z,13.60
2023-04-23T00:11:21.391Z,13.67
2023-04-23T00:13:44.298Z,13.70
2023-04-23T00:16:06.834Z,15.73
2023-04-23T00:18:29.787Z,12.90
2023-04-23T00:20:52.068Z,12.57
2023-04-23T00:23:14.530Z,13.87
2023-04-23T00:25:36.775Z,11.93
2023-04-23T00:27:59.017Z,11.37
2023-04-23T00:30:21.316Z,10.67
2023-04-23T00:32:44.689Z,11.27
2023-04-23T00:35:09.095Z,10.97
2023-04-23T00:37:31.514Z,10.80
2023-04-23T00:39:53.970Z,10.37
2023-04-23T00:42:17.090Z,10.63
2023-04-23T00:44:40.002Z,14.17
2023-04-23T00:47:02.468Z,10.97
2023-04-23T00:49:24.937Z,12.53
2023-04-23T00:51:47.324Z,11.97
2023-04-23T00:54:09.898Z,10.70
2023-04-23T00:56:32.480Z,11.27
2023-04-23T00:58:56.005Z,10.90
2023-04-23T01:01:20.952Z,9.77
2023-04-23T01:03:43.661Z,10.63
2023-04-23T01:06:06.143Z,10.43
2023-04-23T01:08:32.250Z,11.40
2023-04-23T01:10:54.809Z,9.27
2023-04-23T01:13:17.433Z,11.23
2023-04-23T01:15:39.979Z,10.07
2023-04-23T01:18:04.532Z,11.23
2023-04-23T01:20:27.438Z,10.33
2023-04-23T01:22:49.753Z,10.07
2023-04-23T01:25:12.165Z,9.83
2023-04-23T01:27:36.009Z,9.20
2023-04-23T01:29:58.590Z,10.93
2023-04-23T01:32:33.174Z,10.23
2023-04-23T01:34:57.543Z,10.33
2023-04-23T01:37:19.871Z,9.77
2023-04-23T01:39:42.650Z,11.50
2023-04-23T01:42:07.068Z,10.17
2023-04-23T01:44:29.491Z,10.70
2023-04-23T01:46:52.514Z,10.80
2023-04-23T01:49:14.958Z,11.47
2023-04-23T01:51:37.204Z,11.90
2023-04-23T01:53:59.424Z,11.27
2023-04-23T01:56:23.564Z,10.53
2023-04-23T01:58:45.887Z,13.87
2023-04-23T02:01:08.222Z,11.90
2023-04-23T02:03:33.982Z,12.40
2023-04-23T02:05:57.061Z,12.30
2023-04-23T02:08:19.316Z,13.23
2023-04-23T02:10:41.620Z,13.37
2023-04-23T02:13:04.441Z,14.40
2023-04-23T02:15:26.749Z,14.83
2023-04-23T02:17:52.223Z,17.40
2023-04-23T02:20:14.565Z,14.70
2023-04-23T02:22:37.997Z,12.27
2023-04-23T02:25:00.396Z,13.67
2023-04-23T02:27:22.854Z,17.63
2023-04-23T02:29:45.186Z,14.00
2023-04-23T02:32:07.546Z,14.63
2023-04-23T02:34:30.289Z,15.53
2023-04-23T02:36:52.696Z,15.73
2023-04-23T02:39:15.884Z,13.23
2023-04-23T02:41:38.196Z,14.00
2023-04-23T02:44:00.513Z,13.43
2023-04-23T02:46:23.041Z,16.17
2023-04-23T02:48:45.378Z,15.10
2023-04-23T02:51:08.184Z,13.17
2023-04-23T02:53:30.572Z,16.33
2023-04-23T02:55:52.812Z,16.33
2023-04-23T02:58:15.322Z,14.57
2023-04-23T03:00:38.949Z,15.93
2023-04-23T03:03:01.446Z,18.53
2023-04-23T03:05:24.143Z,14.90
2023-04-23T03:07:46.431Z,14.13
2023-04-23T03:10:09.149Z,14.87
2023-04-23T03:12:31.647Z,15.07
2023-04-23T03:14:53.893Z,13.30
2023-04-23T03:17:17.879Z,12.80
2023-04-23T03:19:43.790Z,14.67
2023-04-23T03:22:07.063Z,13.80
2023-04-23T03:24:31.943Z,12.83
2023-04-23T03:26:54.224Z,12.27
2023-04-23T03:29:16.554Z,15.33
2023-04-23T03:31:40.791Z,12.47
2023-04-23T03:34:05.670Z,13.03
2023-04-23T03:36:30.774Z,14.90
2023-04-23T03:38:53.538Z,12.10
2023-04-23T03:41:16.204Z,12.57
2023-04-23T03:43:38.632Z,11.37
2023-04-23T03:46:00.938Z,14.17
2023-04-23T03:48:25.110Z,14.17
2023-04-23T03:50:52.796Z,12.33
2023-04-23T03:53:30.351Z,11.57
2023-04-23T03:56:11.311Z,11.67
2023-04-23T03:58:43.144Z,11.83
2023-04-23T04:01:05.816Z,12.57
2023-04-23T04:03:29.232Z,12.47
2023-04-23T04:05:54.784Z,14.30
2023-04-23T04:08:17.290Z,13.23
2023-04-23T04:10:40.898Z,12.20
2023-04-23T04:13:03.135Z,14.60
2023-04-23T04:15:25.597Z,13.60
2023-04-23T04:17:48.160Z,14.50
2023-04-23T04:20:11.293Z,15.70
2023-04-23T04:22:33.665Z,14.80
2023-04-23T04:24:57.552Z,14.97
2023-04-23T04:27:19.833Z,14.83
2023-04-23T04:29:42.895Z,16.17
2023-04-23T04:32:05.400Z,15.53
2023-04-23T04:34:27.743Z,15.23
2023-04-23T04:36:51.894Z,15.60
2023-04-23T04:39:14.914Z,15.43
2023-04-23T04:41:37.926Z,13.90
2023-04-23T04:44:01.398Z,13.83
2023-04-23T04:46:24.046Z,13.43
2023-04-23T04:48:46.475Z,14.00
2023-04-23T04:51:08.774Z,13.50
2023-04-23T04:53:31.254Z,13.50
2023-04-23T04:55:53.538Z,14.53
2023-04-23T04:58:15.827Z,14.00
2023-04-23T05:00:49.735Z,13.97
2023-04-23T05:03:14.122Z,14.80
2023-04-23T05:05:58.618Z,14.43
2023-04-23T05:08:21.867Z,14.73
2023-04-23T05:10:44.430Z,15.67
2023-04-23T05:13:06.796Z,15.33
2023-04-23T05:15:29.167Z,15.23
2023-04-23T05:17:53.746Z,15.83
2023-04-23T05:20:16.059Z,15.67
2023-04-23T05:22:39.072Z,15.87
2023-04-23T05:25:01.719Z,16.90
2023-04-23T05:27:23.963Z,16.30
2023-04-23T05:29:46.336Z,19.93
2023-04-23T05:32:08.754Z,16.47
2023-04-23T05:34:31.051Z,16.03
2023-04-23T05:36:53.377Z,16.63
2023-04-23T05:39:15.732Z,18.53
2023-04-23T05:41:38.195Z,14.97
2023-04-23T05:44:00.502Z,16.03
2023-04-23T05:46:22.855Z,15.30
2023-04-23T05:48:45.213Z,15.53
2023-04-23T05:51:07.630Z,15.80
2023-04-23T05:53:29.893Z,14.67
2023-04-23T05:55:52.136Z,15.57
2023-04-23T05:58:15.642Z,15.63
2023-04-23T06:00:40.791Z,13.00
2023-04-23T06:03:03.225Z,13.87
2023-04-23T06:05:27.397Z,14.40
2023-04-23T06:07:49.842Z,11.50
2023-04-23T06:10:12.753Z,13.40
2023-04-23T06:12:39.019Z,12.67
2023-04-23T06:15:01.317Z,14.47
2023-04-23T06:17:24.379Z,13.07
2023-04-23T06:19:47.315Z,10.63
2023-04-23T06:22:10.261Z,10.70
2023-04-23T06:24:32.660Z,13.03
2023-04-23T06:26:54.957Z,9.40
2023-04-23T06:29:18.260Z,8.43
2023-04-23T06:31:49.951Z,9.90
2023-04-23T06:34:12.686Z,7.93
2023-04-23T06:36:38.131Z,7.67
2023-04-23T06:39:00.409Z,6.67
2023-04-23T06:41:22.730Z,6.47
2023-04-23T06:43:57.168Z,6.63
2023-04-23T06:46:31.559Z,11.37
2023-04-23T06:48:53.826Z,7.67
2023-04-23T06:51:16.895Z,6.87
2023-04-23T06:53:40.031Z,10.03
2023-04-23T06:56:02.281Z,6.83
2023-04-23T06:58:31.358Z,5.80
2023-04-23T07:00:54.229Z,6.73
2023-04-23T07:03:16.865Z,7.40
2023-04-23T07:05:39.541Z,6.97
2023-04-23T07:08:02.121Z,10.17
2023-04-23T07:10:24.432Z,8.07
2023-04-23T07:13:12.054Z,7.40
2023-04-23T07:15:34.335Z,8.13
2023-04-23T07:17:56.961Z,8.83
2023-04-23T07:20:19.382Z,7.83
2023-04-23T07:22:42.043Z,6.77
2023-04-23T07:25:05.367Z,9.33
2023-04-23T07:27:27.814Z,5.83
2023-04-23T07:29:50.230Z,10.13
2023-04-23T07:32:12.937Z,7.47
2023-04-23T07:34:38.719Z,4.83
2023-04-23T07:37:01.219Z,4.57
2023-04-23T07:39:23.618Z,7.37
2023-04-23T07:41:55.224Z,5.90
2023-04-23T07:44:42.025Z,6.33
2023-04-23T07:47:30.050Z,5.97
2023-04-23T07:49:52.785Z,5.53
2023-04-23T07:52:16.359Z,5.40
2023-04-23T07:54:38.847Z,5.20
2023-04-23T07:57:12.172Z,5.07
2023-04-23T07:59:59.931Z,7.03
2023-04-23T08:02:26.071Z,4.90
2023-04-23T08:04:49.078Z,5.10
2023-04-23T08:07:13.242Z,5.90
2023-04-23T08:09:35.770Z,7.00
2023-04-23T08:11:58.438Z,6.27
2023-04-23T08:14:21.129Z,7.23
2023-04-23T08:16:56.327Z,10.40
2023-04-23T08:22:30.344Z,5.53
2023-04-23T08:24:55.964Z,7.78
2023-04-23T08:27:19.139Z,6.57
2023-04-23T08:29:41.970Z,6.88
2023-04-23T08:32:05.160Z,4.65
2023-04-23T08:37:38.557Z,4.90
2023-04-23T08:40:01.951Z,5.25
2023-04-23T08:42:46.373Z,5.35
2023-04-23T08:45:19.000Z,7.47
2023-04-23T08:47:45.143Z,7.00
2023-04-23T08:50:08.290Z,5.90
2023-04-23T08:52:33.999Z,6.93
2023-04-23T08:55:02.906Z,7.87
2023-04-23T08:57:26.546Z,7.37
2023-04-23T09:00:37.753Z,6.60
2023-04-23T09:03:25.895Z,6.55
2023-04-23T09:05:48.594Z,6.88
2023-04-23T09:08:11.543Z,4.63
2023-04-23T09:10:42.028Z,7.03
2023-04-23T09:13:04.531Z,4.75
2023-04-23T09:15:34.171Z,4.95
2023-04-23T09:18:08.607Z,5.38
2023-04-23T09:20:51.224Z,4.28
2023-04-23T09:27:58.648Z,4.55
2023-04-23T09:30:22.437Z,5.65
2023-04-23T09:35:54.914Z,6.78
2023-04-23T09:38:18.401Z,3.78
2023-04-23T09:41:01.307Z,5.47
2023-04-23T09:43:49.021Z,3.42
2023-04-23T10:01:41.200Z,5.13
2023-04-23T10:04:06.743Z,5.63
2023-04-23T10:09:48.857Z,5.90
2023-04-23T10:12:31.376Z,3.78
2023-04-23T10:15:06.651Z,4.72
2023-04-23T10:21:56.041Z,7.38
2023-04-23T10:24:48.710Z,4.55
2023-04-23T10:27:24.946Z,5.50
2023-04-23T10:30:14.782Z,2.45
2023-04-23T10:32:38.659Z,6.72
2023-04-23T10:35:21.631Z,4.05
2023-04-23T10:37:46.594Z,5.15
2023-04-23T10:40:19.203Z,4.10
2023-04-23T10:47:17.492Z,4.28
2023-04-23T10:49:41.609Z,3.63
2023-04-23T10:52:21.691Z,4.35
2023-04-23T10:58:53.232Z,4.13
2023-04-23T11:01:23.883Z,2.20
2023-04-23T11:03:48.187Z,3.95
2023-04-23T11:06:35.960Z,2.60
2023-04-23T11:09:21.470Z,3.20
2023-04-23T11:11:44.127Z,4.03
2023-04-23T11:14:15.535Z,2.72
2023-04-23T11:16:38.489Z,2.60
2023-04-23T11:23:18.611Z,1.98
2023-04-23T11:25:43.092Z,2.40
2023-04-23T11:28:06.415Z,5.57
2023-04-23T11:30:42.844Z,2.47
2023-04-23T11:33:26.210Z,2.75
2023-04-23T11:36:03.617Z,3.88
2023-04-23T11:38:35.020Z,3.30
2023-04-23T11:40:57.914Z,2.15
2023-04-23T11:43:56.284Z,3.10
2023-04-23T11:49:24.315Z,2.80
2023-04-23T11:52:13.793Z,2.92
2023-04-23T11:54:36.557Z,5.13
2023-04-23T11:57:04.600Z,2.25
2023-04-23T11:59:27.565Z,2.08
2023-04-23T12:01:54.387Z,3.80
2023-04-23T12:04:58.900Z,2.00
2023-04-23T12:07:54.957Z,1.40
2023-04-23T12:10:49.393Z,3.15
2023-04-23T12:13:18.515Z,2.45
2023-04-23T12:16:13.352Z,2.40
2023-04-23T12:19:19.539Z,2.15
2023-04-23T12:21:58.789Z,3.97
2023-04-23T12:25:08.810Z,2.00
2023-04-23T12:27:51.665Z,3.10
2023-04-23T12:30:14.746Z,2.72
2023-04-23T12:40:22.034Z,2.67
2023-04-23T12:42:53.612Z,3.40
2023-04-23T12:45:16.350Z,3.60
2023-04-23T12:48:04.825Z,2.40
2023-04-23T12:50:27.824Z,2.15
2023-04-23T12:53:19.642Z,2.33
2023-04-23T12:55:48.860Z,2.97
2023-04-23T12:58:14.325Z,1.90
2023-04-23T13:00:36.920Z,2.17
2023-04-23T13:02:59.515Z,2.40
2023-04-23T13:05:22.435Z,1.98
2023-04-23T13:07:45.143Z,2.25
2023-04-23T13:10:08.381Z,2.85
2023-04-23T13:12:31.938Z,1.83
2023-04-23T13:14:54.891Z,1.77
2023-04-23T13:17:26.680Z,1.25
2023-04-23T13:20:14.191Z,5.75
2023-04-23T13:22:37.758Z,1.60
2023-04-23T13:25:00.530Z,1.98
2023-04-23T13:27:22.813Z,3.05
2023-04-23T13:29:53.684Z,2.40
2023-04-23T13:32:22.665Z,1.80
2023-04-23T13:34:45.410Z,3.45
2023-04-23T13:37:22.803Z,1.80
2023-04-23T13:39:45.907Z,2.70
2023-04-23T13:42:09.924Z,3.15
2023-04-23T13:47:13.675Z,2.42
2023-04-23T13:49:36.322Z,3.85
2023-04-23T13:52:01.202Z,2.90
2023-04-23T13:57:22.130Z,1.73
2023-04-23T13:59:44.485Z,3.57
2023-04-23T14:02:07.502Z,4.40
2023-04-23T14:04:29.910Z,1.77
2023-04-23T14:06:52.169Z,3.93
2023-04-23T14:09:14.703Z,1.83
2023-04-23T14:11:37.418Z,1.87
2023-04-23T14:14:01.261Z,1.60
2023-04-23T14:16:23.809Z,2.83
2023-04-23T14:18:46.492Z,1.40
2023-04-23T14:21:17.393Z,2.10
2023-04-23T14:23:50.963Z,1.83
2023-04-23T14:26:21.281Z,2.17
2023-04-23T14:28:51.556Z,1.93
2023-04-23T14:31:13.863Z,1.77
2023-04-23T14:33:36.373Z,1.43
2023-04-23T14:36:05.364Z,1.50
2023-04-23T14:38:27.978Z,1.30
2023-04-23T14:40:50.566Z,1.40
2023-04-23T14:43:15.816Z,1.30
2023-04-23T14:45:38.863Z,1.23
2023-04-23T14:48:01.213Z,1.90
2023-04-23T14:50:23.573Z,1.43
2023-04-23T14:52:49.929Z,1.80
2023-04-23T14:55:12.361Z,2.23
2023-04-23T14:57:34.680Z,1.73
2023-04-23T14:59:57.038Z,1.77
2023-04-23T15:02:19.432Z,1.73
2023-04-23T15:04:41.802Z,1.43
2023-04-23T15:07:04.254Z,1.40
2023-04-23T15:09:26.498Z,1.40
2023-04-23T15:11:48.926Z,1.40
2023-04-23T15:14:21.506Z,1.30
2023-04-23T15:16:48.219Z,1.30
2023-04-23T15:19:11.635Z,2.97
2023-04-23T15:21:33.878Z,2.17
2023-04-23T15:23:56.570Z,1.83
2023-04-23T15:26:19.014Z,1.87
2023-04-23T15:28:41.356Z,2.57
2023-04-23T15:31:03.647Z,1.60
2023-04-23T15:33:26.006Z,1.47
2023-04-23T15:35:50.910Z,3.33
2023-04-23T15:38:13.162Z,1.70
2023-04-23T15:40:42.065Z,2.63
2023-04-23T15:43:04.422Z,2.00
2023-04-23T15:45:27.401Z,1.60
2023-04-23T15:47:51.782Z,2.43
2023-04-23T15:50:14.503Z,2.27
2023-04-23T15:52:37.104Z,1.80
2023-04-23T15:54:59.647Z,1.97
2023-04-23T15:57:22.052Z,2.07
2023-04-23T15:59:44.443Z,2.00
2023-04-23T16:02:06.850Z,1.70
2023-04-23T16:04:29.517Z,2.87
2023-04-23T16:06:51.850Z,1.97
2023-04-23T16:09:14.045Z,3.17
2023-04-23T16:11:37.060Z,2.80
2023-04-23T16:13:59.444Z,2.17
2023-04-23T16:16:21.964Z,3.43
2023-04-23T16:18:44.220Z,1.83
2023-04-23T16:21:06.502Z,2.13
2023-04-23T16:23:28.762Z,2.80
2023-04-23T16:25:50.961Z,2.27
2023-04-23T16:28:13.843Z,2.20
2023-04-23T16:30:36.155Z,2.90
2023-04-23T16:32:58.435Z,1.83
2023-04-23T16:35:20.884Z,2.20
2023-04-23T16:37:43.506Z,3.43
2023-04-23T16:40:06.206Z,4.10
2023-04-23T16:42:28.507Z,3.27
2023-04-23T16:44:50.803Z,3.23
2023-04-23T16:47:13.181Z,2.27
2023-04-23T16:49:35.526Z,2.67
2023-04-23T16:51:57.858Z,2.10
2023-04-23T16:54:20.191Z,2.40
2023-04-23T16:56:45.332Z,2.67
2023-04-23T16:59:07.624Z,2.13
2023-04-23T17:01:30.003Z,2.70
2023-04-23T17:03:52.480Z,1.93
2023-04-23T17:06:28.739Z,1.70
2023-04-23T17:08:51.173Z,2.07
2023-04-23T17:11:13.474Z,1.67
2023-04-23T17:13:35.757Z,1.90
2023-04-23T17:15:58.053Z,3.20
2023-04-23T17:18:20.453Z,2.73
2023-04-23T17:20:42.682Z,3.40
2023-04-23T17:23:05.008Z,1.77
2023-04-23T17:25:27.870Z,2.43
2023-04-23T17:27:50.209Z,1.30
2023-04-23T17:30:12.826Z,1.47
2023-04-23T17:32:35.151Z,2.40
2023-04-23T17:35:08.818Z,1.63
2023-04-23T17:37:33.001Z,2.30
2023-04-23T17:39:56.389Z,3.43
2023-04-23T17:42:18.792Z,1.93
2023-04-23T17:44:41.740Z,2.73
2023-04-23T17:47:04.225Z,2.20
2023-04-23T17:49:26.590Z,2.50
2023-04-23T17:51:48.983Z,2.03
2023-04-23T17:54:11.287Z,2.00
2023-04-23T17:56:33.629Z,1.83
2023-04-23T17:58:55.916Z,2.63
2023-04-23T18:01:18.354Z,3.50
2023-04-23T18:03:41.191Z,1.07
2023-04-23T18:06:03.745Z,1.57
2023-04-23T18:08:26.066Z,1.57
2023-04-23T18:10:48.461Z,1.60
2023-04-23T18:13:11.942Z,1.00
2023-04-23T18:15:34.238Z,0.80
2023-04-23T18:17:56.488Z,0.73
2023-04-23T18:20:18.912Z,2.90
2023-04-23T18:22:41.586Z,2.43
2023-04-23T18:25:04.247Z,2.03
2023-04-23T18:27:26.950Z,1.43
2023-04-23T18:29:49.433Z,1.90
2023-04-23T18:32:20.944Z,1.27
2023-04-23T18:34:46.619Z,1.87
2023-04-23T18:37:09.999Z,4.17
2023-04-23T18:39:32.513Z,2.10
2023-04-23T18:41:55.398Z,1.73
2023-04-23T18:44:18.137Z,2.33
2023-04-23T18:46:40.984Z,1.77
2023-04-23T18:49:06.999Z,1.57
2023-04-23T18:51:33.793Z,1.17
2023-04-23T18:53:56.410Z,1.10
2023-04-23T18:56:18.882Z,3.00
2023-04-23T18:58:41.238Z,1.50
2023-04-23T19:01:03.503Z,3.10
2023-04-23T19:03:27.397Z,1.10
2023-04-23T19:05:49.888Z,1.37
2023-04-23T19:08:12.099Z,1.00
2023-04-23T19:10:34.419Z,2.87
2023-04-23T19:12:56.687Z,2.07
2023-04-23T19:15:19.203Z,2.00
2023-04-23T19:17:41.690Z,1.20
2023-04-23T19:20:03.999Z,1.30
2023-04-23T19:22:26.394Z,0.90
2023-04-23T19:24:48.633Z,1.33
2023-04-23T19:27:10.896Z,1.53
2023-04-23T19:29:33.199Z,5.67
2023-04-23T19:31:55.535Z,2.60
2023-04-23T19:34:19.082Z,4.30
2023-04-23T19:36:41.315Z,1.00
2023-04-23T19:39:03.866Z,1.87
2023-04-23T19:41:26.424Z,1.43
2023-04-23T19:43:48.635Z,5.67
2023-04-23T19:46:10.923Z,1.67
2023-04-23T19:48:33.270Z,2.70
2023-04-23T19:50:55.480Z,2.37
2023-04-23T19:53:17.802Z,1.37
2023-04-23T19:55:40.035Z,0.90
2023-04-23T19:58:06.223Z,2.73
2023-04-23T20:00:32.115Z,1.47
2023-04-23T20:02:55.580Z,3.50
2023-04-23T20:05:19.059Z,1.70
2023-04-23T20:07:41.290Z,1.07
2023-04-23T20:10:03.806Z,3.13
2023-04-23T20:12:26.025Z,2.37
2023-04-23T20:14:48.265Z,1.20
2023-04-23T20:17:10.586Z,1.60
2023-04-23T20:19:33.213Z,3.27
2023-04-23T20:21:55.499Z,1.63
2023-04-23T20:24:17.772Z,1.80
2023-04-23T20:26:41.356Z,1.20
2023-04-23T20:29:03.855Z,1.40
2023-04-23T20:31:26.673Z,1.43
2023-04-23T20:33:48.871Z,1.00
2023-04-23T20:36:11.173Z,1.03
2023-04-23T20:38:33.423Z,0.97
2023-04-23T20:40:57.143Z,3.17
2023-04-23T20:43:19.338Z,2.50
2023-04-23T20:45:43.068Z,2.43
2023-04-23T20:48:05.741Z,1.10
2023-04-23T20:50:28.092Z,1.90
2023-04-23T20:52:50.351Z,1.73
2023-04-23T20:55:12.674Z,2.17
2023-04-23T20:57:34.934Z,1.73
2023-04-23T20:59:57.196Z,3.00
2023-04-23T21:02:19.582Z,2.00
2023-04-23T21:04:41.955Z,1.53
2023-04-23T21:07:04.202Z,1.83
2023-04-23T21:09:26.817Z,1.20
2023-04-23T21:11:49.111Z,1.07
2023-04-23T21:14:11.607Z,0.90
2023-04-23T21:16:33.873Z,0.97
2023-04-23T21:18:56.191Z,2.20
2023-04-23T21:21:18.793Z,1.93
2023-04-23T21:23:41.120Z,3.57
2023-04-23T21:26:03.599Z,1.30
2023-04-23T21:28:25.974Z,2.47
2023-04-23T21:30:52.458Z,1.37
2023-04-23T21:33:15.306Z,2.77
2023-04-23T21:35:37.587Z,1.20
2023-04-23T21:37:59.860Z,1.30
2023-04-23T21:40:22.178Z,1.10
2023-04-23T21:42:46.340Z,3.27
2023-04-23T21:45:08.874Z,1.47
2023-04-23T21:47:31.542Z,3.07
2023-04-23T21:49:55.583Z,1.10
2023-04-23T21:52:18.043Z,1.40
2023-04-23T21:54:43.335Z,1.33
2023-04-23T21:57:05.750Z,1.40
2023-04-23T21:59:28.271Z,1.40
2023-04-23T22:01:58.312Z,1.80
2023-04-23T22:04:22.284Z,1.73
2023-04-23T22:06:46.478Z,1.27
2023-04-23T22:09:08.780Z,1.30
2023-04-23T22:11:31.428Z,3.53
2023-04-23T22:13:54.287Z,1.10
2023-04-23T22:16:27.480Z,1.87
2023-04-23T22:18:50.774Z,1.23
2023-04-23T22:21:13.507Z,2.67
2023-04-23T22:23:35.828Z,1.10
2023-04-23T22:25:58.245Z,1.00
2023-04-23T22:28:20.720Z,0.90
2023-04-23T22:30:43.938Z,0.80
2023-04-23T22:33:06.463Z,1.13
2023-04-23T22:35:28.986Z,1.03
2023-04-23T22:37:51.502Z,1.13
2023-04-23T22:40:13.929Z,0.87
2023-04-23T22:42:37.420Z,1.33
2023-04-23T22:44:59.864Z,1.23
2023-04-23T22:47:22.428Z,1.27
2023-04-23T22:49:45.059Z,0.87
2023-04-23T22:52:08.984Z,1.20
2023-04-23T22:54:31.365Z,1.90
2023-04-23T22:56:57.029Z,0.93
2023-04-23T22:59:20.004Z,1.37
2023-04-23T23:01:42.582Z,1.73
2023-04-23T23:04:04.998Z,1.23
2023-04-23T23:06:27.957Z,1.40
2023-04-23T23:08:50.727Z,1.30
2023-04-23T23:11:13.072Z,1.23
2023-04-23T23:13:35.632Z,2.40
2023-04-23T23:16:00.685Z,2.10
2023-04-23T23:18:23.288Z,1.13
2023-04-23T23:20:45.806Z,1.30
2023-04-23T23:23:08.151Z,1.17
2023-04-23T23:25:30.587Z,1.80
2023-04-23T23:27:55.503Z,1.17
2023-04-23T23:30:18.044Z,1.57
2023-04-23T23:32:41.381Z,1.10
2023-04-23T23:35:04.553Z,1.40
2023-04-23T23:37:27.299Z,1.53
2023-04-23T23:39:49.631Z,1.97
2023-04-23T23:42:11.868Z,1.93
2023-04-23T23:44:34.349Z,1.73
2023-04-23T23:46:56.763Z,1.70
2023-04-23T23:49:20.320Z,1.60
2023-04-23T23:51:42.615Z,3.10
2023-04-23T23:54:04.869Z,2.20
2023-04-23T23:56:27.265Z,3.50
2023-04-23T23:58:49.562Z,2.37
